MDST/STI METAR and TAF weather

Enter ICAO airport designator
Station Type Date Time Source
MDST METAR 2019/02/18 04:00 UTC NOAA

MDST 180400Z 14004KT 9999 FEW016 23/20 Q1019


Station Type Date Time Source
MDST Decoded METAR 2019/02/18 04:00 UTC NOAA

Santiago, Dominican Republic (MDST) 19-27N 070-42W
Feb 17, 2019 - 11:00 PM EST / 2019.02.18 0400 UTC
Wind: from the SE (140 degrees) at 5 MPH (4 KT):0
Visibility: greater than 7 mile(s):0
Sky conditions: mostly clear
Temperature: 73 F (23 C)
Dew Point: 68 F (20 C)
Relative Humidity: 83%
Pressure (altimeter): 30.09 in. Hg (1019 hPa)
ob: MDST 180400Z 14004KT 9999 FEW016 23/20 Q1019
cycle: 4

Station Type Date Time Source
MDST TAF 2019/02/18 06:36 UTC NOAA

TAF MDST 180400Z 1806/1906 11010KT 9999 SCT020 PRO30 1811 1812 4000 BR BKN014
BECMG 1810/1812 00000KT


Example: see airport list